Time;durP1;ratioP1;P1;durP2;ratioP2;P2;SDS_P1;SDS_P2;PMS_P1;PMS_P2;Temp;Humidity;BMP_temperature;BMP_pressure;BME280_temperature;BME280_humidity;BME280_pressure;Samples;Min_cycle;Max_cycle;Signal;HPM_P1;HPM_P2
2022/11/02 00:02:01;;;;;;;;;;;19.00;52.70;;;;;;8364361;28;19921;-43
2022/11/02 00:06:01;;;;;;;;;;;19.00;52.70;;;;;;8368219;28;19990;-43
2022/11/02 00:10:01;;;;;;;;;;;19.00;52.70;;;;;;8368913;28;20369;-43
2022/11/02 00:14:02;;;;;;;;;;;19.00;52.70;;;;;;8368637;28;19917;-42
2022/11/02 00:18:11;;;;;;;;;;;19.00;52.70;;;;;;8368444;28;20008;-43
2022/11/02 00:22:11;;;;;;;;;;;19.00;52.70;;;;;;8368553;28;19921;-42
2022/11/02 00:26:12;;;;;;;;;;;19.00;52.70;;;;;;8368219;28;19999;-42
2022/11/02 00:30:13;;;;;;;;;;;19.00;52.70;;;;;;8367403;28;20007;-43
2022/11/02 00:34:13;;;;;;;;;;;19.00;52.70;;;;;;8368213;28;19917;-43
2022/11/02 00:38:13;;;;;;;;;;;19.00;52.70;;;;;;8367736;28;20408;-43
2022/11/02 00:42:15;;;;;;;;;;;18.90;52.70;;;;;;8367100;28;19925;-43
2022/11/02 00:46:15;;;;;;;;;;;19.00;52.70;;;;;;8367961;28;20380;-43
2022/11/02 00:50:16;;;;;;;;;;;19.00;52.70;;;;;;8367519;28;19917;-42
2022/11/02 00:54:16;;;;;;;;;;;19.00;52.80;;;;;;8366896;28;19920;-43
2022/11/02 00:58:17;;;;;;;;;;;19.00;52.70;;;;;;8367325;28;19928;-43
2022/11/02 01:02:17;;;;;;;;;;;18.90;52.70;;;;;;8367153;28;19925;-43
2022/11/02 01:06:18;;;;;;;;;;;18.90;52.70;;;;;;8366218;28;19921;-43
2022/11/02 01:10:18;;;;;;;;;;;18.90;52.60;;;;;;8366875;28;19917;-43
2022/11/02 01:14:19;;;;;;;;;;;18.90;52.70;;;;;;8366323;28;19923;-43
2022/11/02 01:18:19;;;;;;;;;;;19.00;52.70;;;;;;8366162;28;19920;-43
2022/11/02 01:22:20;;;;;;;;;;;18.90;52.60;;;;;;8366508;28;20377;-43
2022/11/02 01:26:20;;;;;;;;;;;18.90;52.70;;;;;;8366517;28;19921;-42
2022/11/02 01:30:21;;;;;;;;;;;18.90;52.70;;;;;;8365923;28;19917;-43
2022/11/02 01:34:21;;;;;;;;;;;18.90;52.70;;;;;;8366022;28;19920;-43
2022/11/02 01:38:22;;;;;;;;;;;18.90;52.70;;;;;;8364944;28;19924;-43
2022/11/02 01:42:23;;;;;;;;;;;18.90;52.70;;;;;;8365377;28;19960;-42
2022/11/02 01:46:29;;;;;;;;;;;18.90;52.70;;;;;;8365744;28;20288;-43
2022/11/02 01:50:29;;;;;;;;;;;18.90;52.70;;;;;;8365515;28;19917;-43
2022/11/02 01:54:31;;;;;;;;;;;18.90;52.60;;;;;;8364754;28;20333;-43
2022/11/02 01:58:33;;;;;;;;;;;18.90;52.70;;;;;;8365381;28;19924;-43
2022/11/02 02:02:37;;;;;;;;;;;18.90;52.70;;;;;;8365414;28;19925;-43
2022/11/02 02:06:38;;;;;;;;;;;18.80;52.70;;;;;;8364533;28;19925;-43
2022/11/02 02:10:39;;;;;;;;;;;18.80;52.70;;;;;;8364167;28;20007;-43
2022/11/02 02:14:39;;;;;;;;;;;18.80;52.70;;;;;;8364764;28;19974;-43
2022/11/02 02:18:43;;;;;;;;;;;18.80;52.60;;;;;;8364169;28;20010;-43
2022/11/02 02:23:04;;;;;;;;;;;18.80;52.70;;;;;;8364993;28;19921;-43
2022/11/02 02:27:08;;;;;;;;;;;18.80;52.70;;;;;;8363005;28;19924;-43
2022/11/02 02:31:18;;;;;;;;;;;18.80;52.70;;;;;;8364555;28;19921;-42
2022/11/02 02:35:27;;;;;;;;;;;18.80;52.70;;;;;;8362901;28;19958;-43
2022/11/02 02:39:43;;;;;;;;;;;18.80;52.60;;;;;;8363281;28;19928;-42
2022/11/02 02:43:46;;;;;;;;;;;18.80;52.70;;;;;;8363833;28;20440;-43
2022/11/02 02:48:15;;;;;;;;;;;18.80;52.70;;;;;;8364181;28;19917;-44
2022/11/02 02:52:16;;;;;;;;;;;18.80;52.70;;;;;;8358698;28;19916;-43
2022/11/02 02:56:18;;;;;;;;;;;18.80;52.70;;;;;;8363540;28;19923;-43
2022/11/02 03:00:19;;;;;;;;;;;18.80;52.70;;;;;;8363049;28;20232;-42
2022/11/02 03:04:19;;;;;;;;;;;18.80;52.70;;;;;;8363258;28;20346;-42
2022/11/02 03:08:20;;;;;;;;;;;18.80;52.70;;;;;;8363530;28;19913;-43
2022/11/02 03:12:39;;;;;;;;;;;18.80;52.70;;;;;;8362899;28;20016;-43
2022/11/02 03:16:58;;;;;;;;;;;18.80;52.70;;;;;;8363474;28;19917;-42
2022/11/02 03:21:17;;;;;;;;;;;18.70;52.70;;;;;;8362861;28;19978;-42
2022/11/02 03:25:22;;;;;;;;;;;18.70;52.60;;;;;;8362910;28;20018;-43
2022/11/02 03:29:25;;;;;;;;;;;18.80;52.70;;;;;;8363311;28;20015;-43
2022/11/02 03:33:29;;;;;;;;;;;18.70;52.70;;;;;;8362534;28;20005;-43
2022/11/02 03:37:29;;;;;;;;;;;18.70;52.70;;;;;;8367039;28;19921;-42
2022/11/02 03:41:31;;;;;;;;;;;18.80;52.70;;;;;;8369488;28;20453;-43
2022/11/02 03:45:37;;;;;;;;;;;18.70;52.70;;;;;;8368705;28;19917;-43
2022/11/02 03:49:39;;;;;;;;;;;18.70;52.70;;;;;;8369238;28;19921;-43
2022/11/02 03:53:45;;;;;;;;;;;18.70;52.70;;;;;;8369362;28;19966;-43
2022/11/02 03:57:46;;;;;;;;;;;18.70;52.70;;;;;;8368976;28;20007;-43
2022/11/02 04:01:49;;;;;;;;;;;18.70;52.70;;;;;;8369077;28;19937;-43
2022/11/02 04:05:49;;;;;;;;;;;18.70;52.70;;;;;;8368829;28;19921;-42
2022/11/02 04:09:50;;;;;;;;;;;18.70;52.70;;;;;;8368292;28;19924;-42
2022/11/02 04:26:50;;;;;;;;;;;18.70;52.70;;;;;;8369369;28;19940;-42
2022/11/02 04:30:50;;;;;;;;;;;18.70;52.80;;;;;;8367501;28;20019;-43
2022/11/02 04:34:50;;;;;;;;;;;18.70;52.80;;;;;;8367930;28;19913;-42
2022/11/02 04:38:51;;;;;;;;;;;18.70;52.70;;;;;;8368094;28;19917;-42
2022/11/02 04:42:51;;;;;;;;;;;18.70;52.70;;;;;;8367089;28;19932;-42
2022/11/02 04:46:52;;;;;;;;;;;18.70;52.70;;;;;;8366990;28;19917;-42
2022/11/02 04:50:52;;;;;;;;;;;18.70;52.70;;;;;;8367440;28;19966;-42
2022/11/02 04:54:53;;;;;;;;;;;18.70;52.70;;;;;;8366852;28;19917;-42
2022/11/02 04:58:54;;;;;;;;;;;18.70;52.70;;;;;;8367378;28;19920;-42
2022/11/02 05:02:55;;;;;;;;;;;18.60;52.60;;;;;;8367090;28;19928;-42
2022/11/02 05:06:55;;;;;;;;;;;18.60;52.70;;;;;;8367034;28;19920;-42
2022/11/02 05:10:56;;;;;;;;;;;18.70;52.70;;;;;;8362670;28;20361;-43
2022/11/02 05:14:57;;;;;;;;;;;18.70;52.70;;;;;;8366595;28;19917;-42
2022/11/02 05:18:57;;;;;;;;;;;18.70;52.70;;;;;;8366397;28;20365;-42
2022/11/02 05:22:58;;;;;;;;;;;18.70;52.70;;;;;;8365912;28;19925;-42
2022/11/02 05:26:59;;;;;;;;;;;18.60;52.60;;;;;;8366570;28;19913;-43
2022/11/02 05:31:00;;;;;;;;;;;18.60;53.20;;;;;;8333173;28;19923;-42
2022/11/02 05:35:00;;;;;;;;;;;18.70;52.70;;;;;;8332858;28;19914;-43
2022/11/02 05:39:01;;;;;;;;;;;18.70;52.70;;;;;;8332654;28;19924;-42
2022/11/02 05:43:02;;;;;;;;;;;18.60;52.60;;;;;;8332622;28;19991;-43
2022/11/02 05:47:03;;;;;;;;;;;18.70;52.60;;;;;;8332425;28;19917;-42
2022/11/02 05:51:03;;;;;;;;;;;18.70;52.60;;;;;;8332068;28;20373;-43
2022/11/02 05:55:04;;;;;;;;;;;18.60;52.60;;;;;;8332452;28;19919;-43
2022/11/02 05:59:04;;;;;;;;;;;18.60;52.60;;;;;;8331477;28;19963;-43
2022/11/02 06:03:05;;;;;;;;;;;18.70;52.70;;;;;;8331631;28;20390;-42
2022/11/02 06:07:06;;;;;;;;;;;18.60;52.60;;;;;;8332564;28;19925;-42
2022/11/02 06:11:07;;;;;;;;;;;18.60;52.60;;;;;;8331954;28;19913;-43
2022/11/02 06:15:08;;;;;;;;;;;18.60;52.60;;;;;;8331398;28;19956;-43
2022/11/02 06:19:09;;;;;;;;;;;18.60;52.60;;;;;;8331814;28;20289;-42
2022/11/02 06:23:10;;;;;;;;;;;18.60;52.60;;;;;;8331621;28;20002;-42
2022/11/02 06:27:11;;;;;;;;;;;18.60;52.70;;;;;;8331012;28;20381;-43
2022/11/02 06:31:12;;;;;;;;;;;18.60;52.60;;;;;;8331559;28;19917;-42
2022/11/02 06:35:12;;;;;;;;;;;18.60;52.60;;;;;;8331396;28;20003;-43
2022/11/02 06:39:13;;;;;;;;;;;18.60;52.60;;;;;;8330933;28;19924;-42
2022/11/02 06:43:13;;;;;;;;;;;18.60;52.60;;;;;;8330959;28;19932;-42
2022/11/02 06:47:13;;;;;;;;;;;18.60;52.60;;;;;;8330837;28;19947;-42
2022/11/02 06:51:14;;;;;;;;;;;18.60;52.60;;;;;;8330453;28;19921;-42
2022/11/02 06:55:15;;;;;;;;;;;18.60;52.60;;;;;;8330795;28;19954;-42
2022/11/02 06:59:15;;;;;;;;;;;18.60;52.60;;;;;;8331033;28;19917;-42
2022/11/02 07:03:16;;;;;;;;;;;18.60;53.10;;;;;;8329863;28;19925;-43
2022/11/02 07:07:16;;;;;;;;;;;18.60;52.60;;;;;;8330270;28;20015;-42
2022/11/02 07:11:17;;;;;;;;;;;18.60;52.60;;;;;;8330117;28;19928;-42
2022/11/02 07:15:17;;;;;;;;;;;18.60;52.60;;;;;;8329831;28;19941;-42
2022/11/02 07:19:18;;;;;;;;;;;18.60;52.60;;;;;;8330461;28;19921;-42
2022/11/02 07:23:22;;;;;;;;;;;18.60;52.60;;;;;;8330181;28;19925;-42
2022/11/02 07:27:22;;;;;;;;;;;18.60;52.60;;;;;;8329590;28;20330;-42
2022/11/02 07:31:23;;;;;;;;;;;18.60;52.70;;;;;;8330103;28;19917;-42
2022/11/02 07:35:23;;;;;;;;;;;18.60;52.60;;;;;;8330229;28;19920;-42
2022/11/02 07:39:25;;;;;;;;;;;18.60;52.60;;;;;;8329777;28;19913;-42
2022/11/02 07:43:25;;;;;;;;;;;18.60;52.60;;;;;;8329907;28;19925;-43
2022/11/02 07:47:26;;;;;;;;;;;18.60;52.60;;;;;;8330141;28;20373;-42
2022/11/02 07:51:26;;;;;;;;;;;18.60;52.60;;;;;;8329137;28;20370;-43
2022/11/02 07:55:28;;;;;;;;;;;18.60;52.60;;;;;;8329710;28;20365;-42
2022/11/02 07:59:28;;;;;;;;;;;18.60;52.60;;;;;;8329763;28;19963;-42
2022/11/02 08:03:29;;;;;;;;;;;18.60;52.60;;;;;;8328033;28;20327;-43
2022/11/02 08:07:29;;;;;;;;;;;18.60;52.60;;;;;;8329861;28;19917;-43
2022/11/02 08:11:30;;;;;;;;;;;18.60;52.60;;;;;;8329525;28;19917;-43
2022/11/02 08:15:30;;;;;;;;;;;18.60;52.60;;;;;;8328840;28;19967;-42
2022/11/02 08:19:31;;;;;;;;;;;18.60;52.60;;;;;;8329491;28;19913;-43
2022/11/02 08:23:31;;;;;;;;;;;18.70;52.60;;;;;;8331675;28;19924;-43
2022/11/02 08:27:32;;;;;;;;;;;18.60;52.60;;;;;;8334772;28;20396;-44
2022/11/02 08:31:32;;;;;;;;;;;18.60;52.60;;;;;;8334900;28;19921;-42
2022/11/02 08:35:35;;;;;;;;;;;18.60;52.60;;;;;;8330514;28;19913;-43
2022/11/02 08:39:35;;;;;;;;;;;18.70;52.60;;;;;;8332659;28;19920;-43
2022/11/02 08:43:36;;;;;;;;;;;18.60;52.60;;;;;;8334593;28;19917;-43
2022/11/02 08:47:43;;;;;;;;;;;18.60;52.60;;;;;;8334581;28;20297;-42
2022/11/02 08:51:44;;;;;;;;;;;18.60;52.60;;;;;;8333887;28;20318;-43
2022/11/02 08:55:44;;;;;;;;;;;18.60;52.60;;;;;;8334771;28;19914;-43
2022/11/02 08:59:45;;;;;;;;;;;18.70;53.20;;;;;;8334168;28;19913;-43
2022/11/02 09:03:45;;;;;;;;;;;18.70;52.60;;;;;;8333407;28;20003;-44
2022/11/02 09:07:46;;;;;;;;;;;18.70;52.70;;;;;;8334113;28;19917;-43
2022/11/02 09:11:48;;;;;;;;;;;18.70;52.70;;;;;;8333517;28;19917;-42
2022/11/02 09:15:49;;;;;;;;;;;18.70;52.70;;;;;;8333230;28;19945;-42
2022/11/02 09:19:50;;;;;;;;;;;18.70;52.70;;;;;;8333577;28;20004;-42
2022/11/02 09:23:50;;;;;;;;;;;18.70;52.60;;;;;;8333332;28;19917;-42
2022/11/02 09:27:51;;;;;;;;;;;18.70;52.60;;;;;;8333054;28;20400;-42
2022/11/02 09:31:52;;;;;;;;;;;18.70;52.60;;;;;;8332906;28;19917;-42
2022/11/02 09:35:52;;;;;;;;;;;18.70;52.60;;;;;;8333502;28;20006;-42
2022/11/02 09:39:53;;;;;;;;;;;18.70;52.60;;;;;;8332351;28;19932;-43
2022/11/02 09:43:54;;;;;;;;;;;18.80;52.60;;;;;;8332577;28;19917;-42
2022/11/02 09:48:00;;;;;;;;;;;18.80;52.60;;;;;;8332638;28;20015;-42
2022/11/02 09:52:01;;;;;;;;;;;18.80;52.60;;;;;;8364908;28;19917;-42
2022/11/02 09:56:03;;;;;;;;;;;18.80;52.60;;;;;;8365604;28;19957;-42
2022/11/02 10:00:04;;;;;;;;;;;18.70;52.60;;;;;;8364547;28;19925;-43
2022/11/02 10:04:11;;;;;;;;;;;18.80;52.60;;;;;;8364813;28;19927;-42
2022/11/02 10:08:17;;;;;;;;;;;18.80;52.60;;;;;;8364890;28;19970;-42
2022/11/02 10:12:20;;;;;;;;;;;18.80;52.60;;;;;;8364214;28;19925;-43
2022/11/02 10:16:23;;;;;;;;;;;18.80;52.60;;;;;;8364628;28;19924;-43
2022/11/02 10:20:24;;;;;;;;;;;18.80;52.60;;;;;;8364772;28;19940;-43
2022/11/02 10:24:44;;;;;;;;;;;18.80;52.60;;;;;;8363775;28;19966;-43
2022/11/02 10:28:49;;;;;;;;;;;18.80;52.60;;;;;;8364516;28;19921;-43
2022/11/02 10:32:51;;;;;;;;;;;18.80;52.50;;;;;;8364259;28;20007;-43
2022/11/02 10:36:54;;;;;;;;;;;18.80;52.50;;;;;;8363560;28;20400;-43
2022/11/02 10:40:55;;;;;;;;;;;18.90;52.50;;;;;;8364378;28;20014;-42
2022/11/02 10:44:55;;;;;;;;;;;18.90;52.50;;;;;;8363265;28;19920;-42
2022/11/02 10:49:14;;;;;;;;;;;18.90;52.40;;;;;;8363270;28;19917;-42
2022/11/02 10:53:16;;;;;;;;;;;18.90;52.40;;;;;;8363813;28;19939;-41
2022/11/02 10:57:20;;;;;;;;;;;18.90;52.40;;;;;;8363103;28;20273;-43
2022/11/02 11:01:20;;;;;;;;;;;18.90;52.40;;;;;;8363781;28;19921;-44
2022/11/02 11:05:21;;;;;;;;;;;18.90;52.40;;;;;;8362369;28;19920;-43
2022/11/02 11:09:23;;;;;;;;;;;18.90;52.40;;;;;;8362987;28;19948;-43
2022/11/02 11:13:24;;;;;;;;;;;18.90;52.40;;;;;;8363189;28;19939;-43
2022/11/02 11:17:31;;;;;;;;;;;18.90;52.40;;;;;;8363278;28;19916;-43
2022/11/02 11:21:39;;;;;;;;;;;18.90;52.40;;;;;;8362904;28;19924;-43
2022/11/02 11:25:40;;;;;;;;;;;18.90;52.40;;;;;;8363141;28;19916;-43
2022/11/02 11:29:45;;;;;;;;;;;18.90;52.40;;;;;;8363397;28;19923;-43
2022/11/02 11:33:53;;;;;;;;;;;18.90;52.40;;;;;;8362446;28;20281;-43
2022/11/02 11:38:02;;;;;;;;;;;18.90;52.40;;;;;;8363078;28;20361;-43
2022/11/02 11:42:03;;;;;;;;;;;18.90;52.30;;;;;;8362431;28;19921;-43
2022/11/02 11:46:12;;;;;;;;;;;19.00;52.30;;;;;;8362885;28;20058;-43
2022/11/02 11:50:14;;;;;;;;;;;19.00;52.30;;;;;;8362256;28;19917;-44
2022/11/02 11:54:21;;;;;;;;;;;19.00;52.30;;;;;;8361896;28;19921;-43
2022/11/02 11:58:28;;;;;;;;;;;19.00;52.30;;;;;;8366300;28;19939;-42
2022/11/02 12:02:30;;;;;;;;;;;19.00;52.30;;;;;;8368451;28;19932;-43
2022/11/02 12:06:49;;;;;;;;;;;19.00;52.30;;;;;;8368010;28;19921;-43
2022/11/02 12:10:55;;;;;;;;;;;19.00;52.30;;;;;;8368400;28;20020;-42
2022/11/02 12:15:14;;;;;;;;;;;19.00;52.30;;;;;;8368241;28;19940;-42
2022/11/02 12:19:20;;;;;;;;;;;19.00;52.30;;;;;;8367662;28;19917;-42
2022/11/02 12:23:21;;;;;;;;;;;19.00;52.40;;;;;;8367875;28;19999;-42
2022/11/02 12:27:28;;;;;;;;;;;19.00;52.40;;;;;;8367293;28;19916;-42
2022/11/02 12:31:29;;;;;;;;;;;19.00;52.30;;;;;;8368160;28;19923;-43
2022/11/02 12:35:29;;;;;;;;;;;19.00;52.30;;;;;;8366227;28;20373;-42
2022/11/02 12:39:39;;;;;;;;;;;19.00;52.30;;;;;;8354292;28;19927;-43
2022/11/02 12:43:45;;;;;;;;;;;19.10;52.30;;;;;;8367191;28;19944;-44
2022/11/02 12:48:04;;;;;;;;;;;19.10;52.20;;;;;;8367318;28;20457;-43
2022/11/02 12:52:23;;;;;;;;;;;19.10;52.20;;;;;;8367177;28;19917;-43
2022/11/02 12:56:33;;;;;;;;;;;19.10;52.20;;;;;;8367213;28;20433;-42
2022/11/02 13:00:41;;;;;;;;;;;19.10;52.20;;;;;;8366356;28;19925;-43
2022/11/02 13:05:07;;;;;;;;;;;19.10;52.20;;;;;;8366758;28;20254;-42
2022/11/02 13:09:17;;;;;;;;;;;19.10;52.20;;;;;;8364233;28;19932;-42
2022/11/02 13:13:22;;;;;;;;;;;19.10;52.20;;;;;;8366471;28;20258;-42
2022/11/02 13:17:43;;;;;;;;;;;19.10;52.20;;;;;;8366379;28;19935;-42
2022/11/02 13:21:47;;;;;;;;;;;19.10;52.20;;;;;;8365816;28;19924;-42
2022/11/02 13:25:50;;;;;;;;;;;19.10;52.30;;;;;;8365904;28;19920;-42
2022/11/02 13:29:53;;;;;;;;;;;19.10;52.20;;;;;;8365815;28;20373;-42
2022/11/02 13:33:55;;;;;;;;;;;19.10;52.30;;;;;;8365249;28;19924;-42
2022/11/02 13:38:01;;;;;;;;;;;19.10;52.30;;;;;;8365704;28;19917;-42
2022/11/02 13:42:02;;;;;;;;;;;19.10;52.30;;;;;;8365002;28;20004;-43
2022/11/02 13:46:05;;;;;;;;;;;19.10;52.20;;;;;;8365235;28;19917;-42
2022/11/02 13:50:09;;;;;;;;;;;19.10;52.20;;;;;;8365416;28;19951;-42
2022/11/02 13:54:09;;;;;;;;;;;19.10;52.20;;;;;;8364765;28;19924;-44
2022/11/02 13:58:26;;;;;;;;;;;19.10;52.20;;;;;;8364984;28;19917;-42
2022/11/02 14:02:29;;;;;;;;;;;19.10;52.20;;;;;;8365045;28;19998;-42
2022/11/02 14:06:30;;;;;;;;;;;19.10;52.30;;;;;;8362369;28;19943;-42
2022/11/02 14:10:34;;;;;;;;;;;19.10;52.20;;;;;;8364819;28;19939;-42
2022/11/02 14:14:35;;;;;;;;;;;19.10;52.20;;;;;;8364538;28;19956;-42
2022/11/02 14:18:35;;;;;;;;;;;19.10;52.10;;;;;;8364009;28;19920;-44
2022/11/02 14:22:36;;;;;;;;;;;19.10;52.20;;;;;;8396032;28;19921;-43
2022/11/02 14:26:52;;;;;;;;;;;19.10;52.20;;;;;;8364240;28;19917;-43
2022/11/02 14:31:04;;;;;;;;;;;19.10;52.10;;;;;;8363619;28;19917;-43
2022/11/02 14:35:24;;;;;;;;;;;19.20;52.20;;;;;;8363551;28;19924;-43
2022/11/02 14:39:42;;;;;;;;;;;19.10;52.10;;;;;;8363373;28;19924;-43
2022/11/02 14:44:01;;;;;;;;;;;19.10;52.20;;;;;;8363426;28;19925;-44
2022/11/02 14:48:03;;;;;;;;;;;19.10;52.20;;;;;;8363441;28;20400;-44
2022/11/02 14:52:16;;;;;;;;;;;19.20;52.20;;;;;;8364151;28;19916;-42
2022/11/02 14:56:17;;;;;;;;;;;19.20;52.20;;;;;;8363428;28;19921;-42
2022/11/02 15:00:19;;;;;;;;;;;19.10;52.20;;;;;;8362755;28;19975;-45
2022/11/02 15:04:20;;;;;;;;;;;19.20;52.20;;;;;;8363056;28;19955;-42
2022/11/02 15:08:25;;;;;;;;;;;19.20;52.20;;;;;;8363112;28;19913;-42
2022/11/02 15:12:29;;;;;;;;;;;19.20;52.20;;;;;;8363327;28;19921;-43
2022/11/02 15:16:37;;;;;;;;;;;19.20;52.20;;;;;;8362934;28;19948;-43
2022/11/02 15:20:38;;;;;;;;;;;19.20;52.70;;;;;;8362844;28;19975;-42
2022/11/02 15:24:40;;;;;;;;;;;19.20;52.20;;;;;;8362390;28;19921;-43
2022/11/02 15:28:42;;;;;;;;;;;19.20;52.20;;;;;;8362732;28;19917;-43
2022/11/02 15:32:46;;;;;;;;;;;19.10;52.20;;;;;;8366163;28;19917;-44
2022/11/02 15:36:46;;;;;;;;;;;19.20;52.20;;;;;;8368926;28;20281;-43
2022/11/02 15:40:49;;;;;;;;;;;19.20;52.30;;;;;;8401781;28;19979;-42
2022/11/02 15:45:19;;;;;;;;;;;19.10;52.30;;;;;;8368944;28;19940;-42
2022/11/02 15:49:29;;;;;;;;;;;19.10;52.30;;;;;;8372752;28;19924;-41
2022/11/02 15:53:45;;;;;;;;;;;19.10;52.40;;;;;;8369310;28;19917;-42
2022/11/02 15:57:59;;;;;;;;;;;19.10;52.40;;;;;;8368581;28;20333;-42
2022/11/02 16:02:06;;;;;;;;;;;19.10;52.30;;;;;;8368466;28;19951;-42
2022/11/02 16:06:06;;;;;;;;;;;19.10;52.30;;;;;;8368709;28;20105;-43
2022/11/02 16:10:30;;;;;;;;;;;19.10;52.40;;;;;;8368695;28;19917;-43
2022/11/02 16:14:31;;;;;;;;;;;19.10;52.30;;;;;;8370352;28;19924;-43
2022/11/02 16:18:36;;;;;;;;;;;19.10;52.30;;;;;;8367967;28;20285;-41
2022/11/02 16:22:36;;;;;;;;;;;19.10;52.30;;;;;;8368320;28;20400;-42
2022/11/02 16:26:37;;;;;;;;;;;19.10;52.30;;;;;;8367875;28;19971;-42
2022/11/02 16:30:38;;;;;;;;;;;19.10;52.30;;;;;;8367285;28;19955;-43
2022/11/02 16:34:39;;;;;;;;;;;19.10;52.40;;;;;;8367842;28;20277;-42
2022/11/02 16:38:44;;;;;;;;;;;19.10;52.40;;;;;;8368029;28;19949;-43
2022/11/02 16:42:46;;;;;;;;;;;19.00;52.40;;;;;;8366214;28;19952;-43
2022/11/02 16:46:46;;;;;;;;;;;19.10;52.40;;;;;;8367173;28;19917;-42
2022/11/02 16:51:00;;;;;;;;;;;19.00;52.40;;;;;;8367297;28;20288;-43
2022/11/02 16:55:02;;;;;;;;;;;19.00;52.40;;;;;;8366994;28;19970;-44
2022/11/02 16:59:04;;;;;;;;;;;19.00;52.40;;;;;;8363588;28;19917;-42
2022/11/02 17:03:09;;;;;;;;;;;19.00;52.40;;;;;;8354492;28;19925;-43
2022/11/02 17:07:19;;;;;;;;;;;19.00;52.40;;;;;;8363053;28;19952;-43
2022/11/02 17:11:20;;;;;;;;;;;19.00;52.30;;;;;;8356224;28;20358;-43
2022/11/02 17:15:24;;;;;;;;;;;19.00;52.40;;;;;;8361626;28;19932;-43
2022/11/02 17:19:40;;;;;;;;;;;19.00;52.40;;;;;;8364773;28;19924;-44
2022/11/02 17:23:42;;;;;;;;;;;19.00;52.40;;;;;;8351363;28;20487;-43
2022/11/02 17:27:42;;;;;;;;;;;19.00;52.40;;;;;;8365705;28;19989;-44
2022/11/02 17:31:43;;;;;;;;;;;19.00;52.40;;;;;;8362415;28;19921;-43
2022/11/02 17:35:44;;;;;;;;;;;19.00;52.40;;;;;;8361853;28;20392;-42
2022/11/02 17:39:45;;;;;;;;;;;19.00;52.40;;;;;;8364988;28;19917;-42
2022/11/02 17:43:45;;;;;;;;;;;19.00;52.40;;;;;;8362749;28;20012;-43
2022/11/02 17:47:46;;;;;;;;;;;19.00;52.40;;;;;;8364510;28;19924;-42
2022/11/02 17:51:46;;;;;;;;;;;19.00;52.40;;;;;;8357229;28;19944;-43
2022/11/02 17:55:47;;;;;;;;;;;19.00;52.30;;;;;;8361734;28;19917;-42
2022/11/02 17:59:47;;;;;;;;;;;19.00;52.40;;;;;;8365071;28;19921;-42
2022/11/02 18:03:48;;;;;;;;;;;19.00;52.40;;;;;;8362484;28;19925;-42
2022/11/02 18:07:50;;;;;;;;;;;19.00;52.40;;;;;;8361774;28;20002;-44
2022/11/02 18:11:50;;;;;;;;;;;18.90;52.40;;;;;;8365001;28;19999;-44
2022/11/02 18:15:51;;;;;;;;;;;19.00;52.70;;;;;;8360010;28;19970;-45
2022/11/02 18:19:51;;;;;;;;;;;18.90;52.40;;;;;;8364217;28;19990;-43
2022/11/02 18:23:52;;;;;;;;;;;18.90;52.40;;;;;;8360021;28;20459;-43
2022/11/02 18:27:52;;;;;;;;;;;18.90;52.40;;;;;;8357234;28;20344;-44
2022/11/02 18:31:53;;;;;;;;;;;18.90;52.40;;;;;;8362053;28;19924;-43
2022/11/02 18:36:00;;;;;;;;;;;19.00;52.30;;;;;;8358153;28;19923;-44
2022/11/02 18:40:00;;;;;;;;;;;19.00;52.30;;;;;;8354075;28;19948;-44
2022/11/02 18:44:06;;;;;;;;;;;18.90;52.30;;;;;;8359586;28;20300;-43
2022/11/02 18:48:08;;;;;;;;;;;19.00;52.30;;;;;;8363441;28;19923;-43
2022/11/02 18:52:08;;;;;;;;;;;18.90;52.30;;;;;;8363577;28;19944;-43
2022/11/02 18:56:09;;;;;;;;;;;18.90;52.30;;;;;;8363767;28;19924;-43
2022/11/02 19:00:11;;;;;;;;;;;18.90;52.30;;;;;;8362984;28;19917;-42
2022/11/02 19:04:11;;;;;;;;;;;18.90;52.30;;;;;;8364522;28;20258;-44
2022/11/02 19:12:30;;;;;;;;;;;18.90;52.80;;;;;;8362993;28;19923;-43
2022/11/02 19:16:31;;;;;;;;;;;18.90;52.30;;;;;;8363384;28;19945;-42
2022/11/02 19:20:32;;;;;;;;;;;18.90;52.30;;;;;;8363075;28;19947;-43
2022/11/02 19:24:32;;;;;;;;;;;18.90;52.30;;;;;;8362820;28;19948;-43
2022/11/02 19:28:32;;;;;;;;;;;18.90;52.30;;;;;;8363298;28;19917;-43
2022/11/02 19:32:33;;;;;;;;;;;18.90;52.30;;;;;;8363113;28;19917;-43
2022/11/02 19:36:33;;;;;;;;;;;18.90;52.30;;;;;;8362423;28;19917;-43
2022/11/02 19:40:34;;;;;;;;;;;18.90;52.30;;;;;;8362902;28;19979;-43
2022/11/02 19:44:34;;;;;;;;;;;18.90;52.20;;;;;;8363077;28;19920;-42
2022/11/02 19:48:35;;;;;;;;;;;18.90;52.20;;;;;;8362295;28;20004;-43
2022/11/02 19:52:35;;;;;;;;;;;18.90;52.20;;;;;;8362640;28;19916;-42
2022/11/02 19:56:36;;;;;;;;;;;18.90;52.20;;;;;;8362753;28;19917;-42
2022/11/02 20:00:37;;;;;;;;;;;18.90;52.10;;;;;;8362006;28;19925;-43
2022/11/02 20:04:37;;;;;;;;;;;18.90;52.10;;;;;;8362590;28;19921;-44
2022/11/02 20:08:38;;;;;;;;;;;18.90;52.10;;;;;;8362542;28;19955;-43
2022/11/02 20:12:38;;;;;;;;;;;18.90;52.10;;;;;;8349781;28;19955;-42
2022/11/02 20:16:39;;;;;;;;;;;18.90;52.20;;;;;;8362149;28;19951;-43
2022/11/02 20:20:39;;;;;;;;;;;18.90;52.20;;;;;;8366326;28;19986;-43
2022/11/02 20:24:40;;;;;;;;;;;18.80;52.10;;;;;;8368072;28;19913;-43
2022/11/02 20:28:43;;;;;;;;;;;18.90;52.20;;;;;;8368098;28;20333;-43
2022/11/02 20:32:43;;;;;;;;;;;18.90;52.20;;;;;;8368249;28;19928;-43
2022/11/02 20:36:46;;;;;;;;;;;18.90;52.10;;;;;;8367520;28;19959;-43
2022/11/02 20:40:46;;;;;;;;;;;18.80;52.10;;;;;;8368037;28;20266;-43
2022/11/02 20:44:48;;;;;;;;;;;18.80;52.10;;;;;;8367867;28;19913;-43
2022/11/02 20:48:49;;;;;;;;;;;18.80;52.00;;;;;;8367130;28;19971;-43
2022/11/02 20:52:51;;;;;;;;;;;18.80;52.10;;;;;;8367866;28;19943;-42
2022/11/02 20:56:51;;;;;;;;;;;18.80;52.10;;;;;;8367279;28;20276;-41
2022/11/02 21:00:52;;;;;;;;;;;18.80;52.00;;;;;;8366635;28;19925;-42
2022/11/02 21:04:52;;;;;;;;;;;18.80;52.00;;;;;;8367235;28;20289;-42
2022/11/02 21:08:53;;;;;;;;;;;18.80;52.00;;;;;;8367031;28;19924;-42
2022/11/02 21:17:12;;;;;;;;;;;18.80;52.00;;;;;;8367256;28;19924;-42
2022/11/02 21:21:17;;;;;;;;;;;18.80;52.00;;;;;;8366083;28;19968;-42
2022/11/02 21:25:17;;;;;;;;;;;18.70;51.90;;;;;;8366729;28;19958;-42
2022/11/02 21:29:18;;;;;;;;;;;18.80;52.00;;;;;;8365856;28;20332;-42
2022/11/02 21:33:18;;;;;;;;;;;18.80;52.00;;;;;;8365892;28;19921;-42
2022/11/02 21:37:19;;;;;;;;;;;18.70;51.90;;;;;;8366070;28;19966;-42
2022/11/02 21:41:20;;;;;;;;;;;18.70;52.00;;;;;;8366125;28;19994;-42
2022/11/02 21:45:21;;;;;;;;;;;18.80;52.10;;;;;;8365639;28;19916;-42
2022/11/02 21:49:22;;;;;;;;;;;18.70;52.00;;;;;;8365893;28;19986;-42
2022/11/02 21:53:22;;;;;;;;;;;18.70;52.00;;;;;;8365575;28;19963;-43
2022/11/02 21:57:22;;;;;;;;;;;18.70;52.00;;;;;;8365025;28;20289;-42
2022/11/02 22:01:43;;;;;;;;;;;18.70;51.90;;;;;;8365182;28;19931;-43
2022/11/02 22:05:56;;;;;;;;;;;18.70;52.00;;;;;;8365548;28;19951;-43
2022/11/02 22:09:56;;;;;;;;;;;18.70;52.00;;;;;;8364745;28;19916;-43
2022/11/02 22:13:57;;;;;;;;;;;18.70;51.90;;;;;;8364919;28;19923;-43
2022/11/02 22:17:58;;;;;;;;;;;18.70;51.90;;;;;;8364936;28;20385;-43
2022/11/02 22:21:58;;;;;;;;;;;18.70;51.90;;;;;;8364120;28;20073;-44
2022/11/02 22:26:01;;;;;;;;;;;18.70;51.90;;;;;;8365049;28;19921;-42
2022/11/02 22:30:01;;;;;;;;;;;18.60;51.90;;;;;;8364048;28;20399;-43
2022/11/02 22:34:03;;;;;;;;;;;18.60;51.90;;;;;;8364330;28;19917;-42
2022/11/02 22:42:22;;;;;;;;;;;18.60;51.90;;;;;;8362959;28;19931;-42
2022/11/02 22:46:23;;;;;;;;;;;18.70;51.90;;;;;;8364207;28;19913;-42
2022/11/02 22:50:24;;;;;;;;;;;18.70;51.90;;;;;;8364117;28;19913;-42
2022/11/02 22:54:24;;;;;;;;;;;18.70;51.80;;;;;;8363272;28;19924;-42
2022/11/02 22:58:25;;;;;;;;;;;18.60;51.80;;;;;;8363678;28;19916;-42
2022/11/02 23:02:25;;;;;;;;;;;18.60;51.80;;;;;;8361662;28;20316;-42
2022/11/02 23:06:27;;;;;;;;;;;18.60;51.80;;;;;;8362949;28;20372;-42
2022/11/02 23:14:46;;;;;;;;;;;18.60;52.30;;;;;;8363486;28;19939;-42
2022/11/02 23:32:24;;;;;;;;;;;18.60;51.80;;;;;;8363979;28;19938;-42
2022/11/02 23:36:14;;;;;;;;;;;18.60;51.70;;;;;;8362840;28;20016;-42
2022/11/02 23:40:17;;;;;;;;;;;18.60;51.70;;;;;;8362999;28;19924;-42
2022/11/02 23:44:18;;;;;;;;;;;18.50;51.70;;;;;;8363105;28;19929;-43
2022/11/02 23:48:18;;;;;;;;;;;18.50;51.70;;;;;;8362402;28;19921;-42
2022/11/02 23:56:44;;;;;;;;;;;18.50;51.70;;;;;;8369674;28;20320;-42
